Time;durP1;ratioP1;P1;durP2;ratioP2;P2;SDS_P1;SDS_P2;PMS_P1;PMS_P2;Temp;Humidity;BMP_temperature;BMP_pressure;BME280_temperature;BME280_humidity;BME280_pressure;Samples;Min_cycle;Max_cycle;Signal;HPM_P1;HPM_P2
2023/07/01 00:01:35;;;;;;;0.08;0.00;;;;;;;20.25;100.00;99778.50;5027104;28;20060;-50
2023/07/01 00:04:00;;;;;;;2.08;0.10;;;;;;;20.14;100.00;99784.19;5036048;28;20033;-51
2023/07/01 00:06:28;;;;;;;0.15;0.00;;;;;;;20.17;100.00;99784.44;5032885;28;20051;-55
2023/07/01 00:08:54;;;;;;;0.40;0.00;;;;;;;20.29;100.00;99786.84;5028539;28;20079;-57
2023/07/01 00:11:20;;;;;;;0.00;0.00;;;;;;;20.26;100.00;99777.44;5032193;28;20459;-55
2023/07/01 00:13:45;;;;;;;0.00;0.00;;;;;;;20.21;100.00;99779.28;5037237;28;20037;-53
2023/07/01 00:16:13;;;;;;;0.00;0.00;;;;;;;20.22;100.00;99775.53;5031741;28;20030;-51
2023/07/01 00:18:40;;;;;;;0.00;0.00;;;;;;;20.20;100.00;99770.41;5037466;28;20645;-51
2023/07/01 00:21:06;;;;;;;0.95;0.00;;;;;;;20.19;100.00;99771.50;5035131;28;20087;-51
2023/07/01 00:23:32;;;;;;;0.65;0.43;;;;;;;20.13;100.00;99774.47;5037311;28;20036;-55
2023/07/01 00:25:57;;;;;;;1.45;0.00;;;;;;;20.11;100.00;99764.00;5038585;28;20430;-48
2023/07/01 00:28:22;;;;;;;4.88;0.30;;;;;;;20.10;100.00;99764.25;5034060;28;20078;-61
2023/07/01 00:30:48;;;;;;;0.77;0.00;;;;;;;20.16;100.00;99764.00;5037067;28;20126;-56
2023/07/01 00:33:13;;;;;;;2.08;0.40;;;;;;;20.26;100.00;99760.44;5030998;28;20071;-57
2023/07/01 00:35:38;;;;;;;1.75;0.00;;;;;;;20.10;100.00;99762.38;5036593;28;20033;-52
2023/07/01 00:38:04;;;;;;;0.47;0.05;;;;;;;20.15;100.00;99758.88;5035105;28;20490;-48
2023/07/01 00:40:29;;;;;;;2.35;0.00;;;;;;;20.17;100.00;99757.50;5025891;28;20029;-54
2023/07/01 00:42:54;;;;;;;0.00;0.00;;;;;;;20.16;100.00;99753.22;5027312;28;20025;-54
2023/07/01 00:45:19;;;;;;;0.03;0.00;;;;;;;20.12;100.00;99752.13;5038233;28;20033;-52
2023/07/01 00:47:45;;;;;;;0.32;0.10;;;;;;;20.21;100.00;99747.81;5033664;28;20029;-54
2023/07/01 00:50:12;;;;;;;0.45;0.38;;;;;;;20.20;100.00;99751.59;5034138;28;20030;-55
2023/07/01 00:52:38;;;;;;;1.13;0.00;;;;;;;20.17;100.00;99749.44;5039363;28;20029;-57
2023/07/01 00:55:06;;;;;;;1.65;0.55;;;;;;;20.22;100.00;99754.00;5032561;28;20021;-47
2023/07/01 00:57:32;;;;;;;0.63;0.13;;;;;;;20.12;100.00;99749.44;5038251;28;20033;-52
2023/07/01 00:59:57;;;;;;;0.10;0.00;;;;;;;20.09;100.00;99758.06;5031904;28;20520;-52
2023/07/01 01:02:27;;;;;;;0.52;0.20;;;;;;;20.02;100.00;99749.47;5032119;28;20049;-53
2023/07/01 01:05:09;;;;;;;3.85;0.15;;;;;;;20.12;100.00;99752.13;5029872;28;20032;-59
2023/07/01 01:07:48;;;;;;;1.58;0.10;;;;;;;20.04;100.00;99744.63;5032597;28;20029;-48
2023/07/01 01:10:20;;;;;;;3.63;1.05;;;;;;;20.03;100.00;99741.13;5030853;28;20497;-63
2023/07/01 01:12:47;;;;;;;5.93;0.10;;;;;;;20.06;100.00;99742.47;5034117;28;20052;-62
2023/07/01 01:15:12;;;;;;;0.80;0.10;;;;;;;19.94;100.00;99737.38;5034684;28;20064;-58
2023/07/01 01:17:42;;;;;;;0.10;0.03;;;;;;;20.02;100.00;99739.50;5026517;28;20128;-63
2023/07/01 01:20:12;;;;;;;2.55;0.85;;;;;;;20.00;100.00;99740.84;5034640;28;20032;-61
2023/07/01 01:22:51;;;;;;;1.70;0.10;;;;;;;20.03;100.00;99734.91;5040860;28;20025;-53
2023/07/01 01:25:24;;;;;;;0.75;0.10;;;;;;;19.94;100.00;99731.19;5034027;28;20755;-64
2023/07/01 01:27:51;;;;;;;1.55;0.10;;;;;;;20.03;100.00;99735.75;5025965;28;20838;-59
2023/07/01 01:30:17;;;;;;;1.02;0.20;;;;;;;20.09;100.00;99733.06;5030329;28;20036;-57
2023/07/01 01:32:42;;;;;;;1.38;0.22;;;;;;;20.12;100.00;99732.50;5027501;28;20033;-61
2023/07/01 01:35:07;;;;;;;0.60;0.22;;;;;;;20.16;100.00;99729.00;5023873;28;20048;-54
2023/07/01 01:37:46;;;;;;;1.27;0.20;;;;;;;20.10;100.00;99724.69;5035179;28;20029;-56
2023/07/01 01:40:22;;;;;;;2.80;1.02;;;;;;;20.08;100.00;99734.91;5030895;28;20060;-56
2023/07/01 01:42:47;;;;;;;0.40;0.10;;;;;;;20.08;100.00;99726.84;5034823;28;20040;-53
2023/07/01 01:45:17;;;;;;;0.95;0.30;;;;;;;20.01;100.00;99715.56;5038269;28;20029;-56
2023/07/01 01:47:43;;;;;;;1.25;0.10;;;;;;;20.08;100.00;99709.91;5036458;28;20558;-58
2023/07/01 01:50:10;;;;;;;0.60;0.60;;;;;;;20.01;100.00;99713.69;5034056;28;20037;-56
2023/07/01 01:52:38;;;;;;;1.08;0.30;;;;;;;20.02;100.00;99711.78;5031498;28;20477;-59
2023/07/01 01:55:04;;;;;;;1.98;0.30;;;;;;;19.98;100.00;99708.03;5033157;28;20052;-53
2023/07/01 01:57:31;;;;;;;0.75;0.00;;;;;;;19.94;100.00;99709.66;5036961;28;20055;-56
2023/07/01 01:59:56;;;;;;;0.17;0.17;;;;;;;19.97;100.00;99714.50;5039520;28;20151;-59
2023/07/01 02:02:22;;;;;;;1.00;0.40;;;;;;;19.93;100.00;99713.41;5036421;28;20828;-59
2023/07/01 02:04:47;;;;;;;4.97;0.10;;;;;;;19.90;100.00;99704.00;5034986;28;20813;-61
2023/07/01 02:07:12;;;;;;;4.95;1.35;;;;;;;19.70;100.00;99714.81;5038351;28;20174;-59
2023/07/01 02:09:38;;;;;;;1.17;0.20;;;;;;;19.87;100.00;99709.13;5032853;28;20125;-53
2023/07/01 02:12:04;;;;;;;0.40;0.10;;;;;;;19.90;100.00;99717.44;5035601;28;20064;-58
2023/07/01 02:14:30;;;;;;;0.68;0.38;;;;;;;19.85;100.00;99701.31;5027093;28;20454;-62
2023/07/01 02:16:55;;;;;;;0.47;0.20;;;;;;;19.96;100.00;99702.13;5035096;28;20033;-60
2023/07/01 02:19:21;;;;;;;4.40;0.50;;;;;;;19.95;100.00;99716.63;5031450;28;20025;-64
2023/07/01 02:21:46;;;;;;;1.25;0.28;;;;;;;19.89;100.00;99709.66;5038387;28;20039;-65
2023/07/01 02:24:11;;;;;;;0.20;0.20;;;;;;;19.89;100.00;99707.78;5036304;28;20029;-56
2023/07/01 02:26:37;;;;;;;1.50;0.20;;;;;;;20.02;100.00;99706.41;5034551;28;20099;-62
2023/07/01 02:29:02;;;;;;;0.60;0.60;;;;;;;19.97;100.00;99703.72;5034615;28;20041;-51
2023/07/01 02:31:28;;;;;;;1.20;0.47;;;;;;;19.98;100.00;99706.16;5030569;28;20112;-60
2023/07/01 02:34:00;;;;;;;1.75;0.40;;;;;;;20.00;100.00;99708.56;5033039;28;20025;-58
2023/07/01 02:36:25;;;;;;;2.35;1.10;;;;;;;19.98;100.00;99699.94;5039196;28;20033;-51
2023/07/01 02:38:50;;;;;;;1.15;0.90;;;;;;;20.01;100.00;99704.81;5038045;28;20075;-60
2023/07/01 02:41:16;;;;;;;3.25;0.40;;;;;;;20.06;100.00;99707.50;5033357;28;20033;-62
2023/07/01 02:43:41;;;;;;;1.60;0.30;;;;;;;20.10;100.00;99705.84;5042484;28;20529;-55
2023/07/01 02:46:06;;;;;;;2.05;0.75;;;;;;;20.04;100.00;99704.25;5035933;28;20500;-62
2023/07/01 02:48:32;;;;;;;1.08;0.47;;;;;;;19.99;100.00;99696.19;5036889;28;20397;-60
2023/07/01 02:50:57;;;;;;;3.40;1.15;;;;;;;20.02;100.00;99693.75;5036930;28;20044;-58
2023/07/01 02:53:22;;;;;;;1.27;0.40;;;;;;;20.06;100.00;99694.03;5040130;28;20549;-60
2023/07/01 02:55:47;;;;;;;1.77;0.85;;;;;;;20.03;100.00;99686.50;5036203;28;20036;-59
2023/07/01 02:58:13;;;;;;;0.93;0.35;;;;;;;19.73;100.00;99690.84;5036617;28;20079;-58
2023/07/01 03:00:38;;;;;;;1.13;0.50;;;;;;;19.93;100.00;99692.72;5035254;28;20029;-60
2023/07/01 03:03:06;;;;;;;5.85;1.13;;;;;;;19.64;100.00;99691.63;5035732;28;20039;-60
2023/07/01 03:05:36;;;;;;;0.75;0.40;;;;;;;19.52;100.00;99690.03;5040588;28;20029;-59
2023/07/01 03:08:01;;;;;;;2.60;0.60;;;;;;;19.43;100.00;99693.53;5036284;28;20401;-61
2023/07/01 03:10:27;;;;;;;3.67;0.90;;;;;;;19.35;100.00;99697.56;5043897;28;20032;-61
2023/07/01 03:12:53;;;;;;;2.05;0.63;;;;;;;19.38;100.00;99697.00;5030921;28;20183;-59
2023/07/01 03:15:18;;;;;;;1.48;0.65;;;;;;;19.34;100.00;99704.00;5039919;28;20035;-58
2023/07/01 03:17:44;;;;;;;2.13;0.22;;;;;;;19.32;100.00;99700.78;5033496;28;20037;-52
2023/07/01 03:20:22;;;;;;;4.55;0.80;;;;;;;19.31;100.00;99708.03;5035322;28;20429;-51
2023/07/01 03:22:51;;;;;;;4.57;0.77;;;;;;;19.35;100.00;99709.09;5033761;28;20296;-59
2023/07/01 03:25:16;;;;;;;0.70;0.70;;;;;;;19.34;100.00;99706.69;5033434;28;20034;-60
2023/07/01 03:27:42;;;;;;;2.05;0.95;;;;;;;19.40;100.00;99706.41;5033532;28;20041;-59
2023/07/01 03:30:13;;;;;;;1.65;0.75;;;;;;;19.34;100.00;99696.75;5036346;28;20576;-59
2023/07/01 03:32:48;;;;;;;3.08;0.60;;;;;;;19.42;100.00;99706.16;5039499;28;20086;-65
2023/07/01 03:35:15;;;;;;;11.05;2.08;;;;;;;19.27;100.00;99696.19;5034364;28;20041;-60
2023/07/01 03:37:42;;;;;;;2.22;0.77;;;;;;;19.15;100.00;99699.16;5036331;28;20041;-64
2023/07/01 03:40:11;;;;;;;2.47;1.33;;;;;;;19.34;100.00;99707.50;5055375;28;20402;-57
2023/07/01 03:42:41;;;;;;;1.58;0.50;;;;;;;19.44;100.00;99705.88;5033469;28;20473;-62
2023/07/01 03:45:08;;;;;;;1.52;0.43;;;;;;;19.51;100.00;99703.75;5033515;28;20386;-59
2023/07/01 03:47:38;;;;;;;0.90;0.50;;;;;;;19.44;100.00;99700.50;5041370;28;20142;-61
2023/07/01 03:50:04;;;;;;;2.15;1.40;;;;;;;19.42;100.00;99695.41;5041745;28;20043;-59
2023/07/01 03:52:29;;;;;;;1.38;0.43;;;;;;;19.35;100.00;99698.34;5039485;28;20481;-62
2023/07/01 03:54:56;;;;;;;2.40;0.98;;;;;;;19.47;100.00;99700.78;5052683;28;20029;-66
2023/07/01 03:57:22;;;;;;;1.08;0.85;;;;;;;19.47;100.00;99697.31;5027659;28;20192;-63
2023/07/01 03:59:47;;;;;;;1.02;0.38;;;;;;;19.45;100.00;99684.13;5040036;28;20605;-62
2023/07/01 04:02:12;;;;;;;1.05;0.50;;;;;;;19.49;100.00;99687.88;5033525;28;20048;-61
2023/07/01 04:04:38;;;;;;;3.25;0.88;;;;;;;19.50;100.00;99694.88;5036584;28;20037;-63
2023/07/01 04:07:05;;;;;;;3.08;0.73;;;;;;;19.48;100.00;99697.00;5033405;28;20376;-62
2023/07/01 04:09:30;;;;;;;0.88;0.57;;;;;;;19.42;100.00;99700.00;5040341;28;20124;-58
2023/07/01 04:11:56;;;;;;;1.75;0.52;;;;;;;19.33;100.00;99705.88;5033595;28;20136;-66
2023/07/01 04:14:23;;;;;;;4.35;1.77;;;;;;;19.30;100.00;99705.59;5043429;28;20087;-63
2023/07/01 04:16:49;;;;;;;0.73;0.73;;;;;;;19.31;100.00;99705.34;5039159;28;20083;-63
2023/07/01 04:19:14;;;;;;;1.83;0.60;;;;;;;19.20;100.00;99703.72;5046214;28;20040;-59
2023/07/01 04:21:40;;;;;;;2.00;0.50;;;;;;;19.16;100.00;99705.34;5034223;28;20398;-60
2023/07/01 04:24:07;;;;;;;2.13;0.30;;;;;;;19.15;100.00;99701.84;5036608;28;20040;-60
2023/07/01 04:26:33;;;;;;;0.80;0.47;;;;;;;19.09;100.00;99712.84;5035859;28;20390;-65
2023/07/01 04:28:58;;;;;;;2.15;1.10;;;;;;;19.15;100.00;99709.06;5041070;28;20028;-58
2023/07/01 04:31:24;;;;;;;0.50;0.50;;;;;;;19.11;100.00;99716.88;5030650;28;20035;-65
2023/07/01 04:33:49;;;;;;;3.45;0.85;;;;;;;19.08;100.00;99712.03;5040032;28;20059;-65
2023/07/01 04:36:15;;;;;;;2.72;0.50;;;;;;;19.02;100.00;99710.38;5026270;28;20057;-63
2023/07/01 04:38:41;;;;;;;1.55;0.20;;;;;;;18.87;100.00;99703.13;5032690;28;20059;-63
2023/07/01 04:41:06;;;;;;;1.15;0.32;;;;;;;19.02;100.00;99698.84;5037158;28;20064;-65
2023/07/01 04:43:31;;;;;;;1.23;0.55;;;;;;;19.02;100.00;99704.22;5037450;28;20068;-63
2023/07/01 04:45:57;;;;;;;4.68;0.82;;;;;;;18.88;100.00;99704.72;5036854;28;20379;-64
2023/07/01 04:48:23;;;;;;;1.83;0.47;;;;;;;18.90;100.00;99716.03;5033780;28;20037;-65
2023/07/01 04:50:48;;;;;;;0.32;0.10;;;;;;;18.94;100.00;99717.09;5046357;28;20078;-65
2023/07/01 04:53:13;;;;;;;0.85;0.05;;;;;;;18.87;100.00;99726.47;5048008;28;20029;-65
2023/07/01 04:55:39;;;;;;;0.00;0.00;;;;;;;18.76;100.00;99722.94;5044752;28;20037;-65
2023/07/01 04:58:04;;;;;;;1.23;0.00;;;;;;;18.66;100.00;99728.25;5038949;28;20551;-59
2023/07/01 05:00:29;;;;;;;1.77;0.65;;;;;;;18.70;100.00;99734.72;5034620;28;20029;-60
2023/07/01 05:02:55;;;;;;;0.00;0.00;;;;;;;18.68;100.00;99734.97;5033567;28;20112;-61
2023/07/01 05:05:20;;;;;;;0.17;0.03;;;;;;;18.59;100.00;99731.19;5031835;28;20398;-64
2023/07/01 05:07:46;;;;;;;3.13;0.00;;;;;;;18.59;100.00;99735.75;5026244;28;20037;-65
2023/07/01 05:10:11;;;;;;;0.00;0.00;;;;;;;18.55;100.00;99729.28;5037157;28;20222;-55
2023/07/01 05:12:37;;;;;;;0.43;0.00;;;;;;;18.60;100.00;99737.34;5030215;28;20048;-65
2023/07/01 05:15:02;;;;;;;0.00;0.00;;;;;;;18.57;100.00;99736.00;5034765;28;20029;-56
2023/07/01 05:17:28;;;;;;;2.65;0.00;;;;;;;18.50;100.00;99749.66;5028427;28;20061;-51
2023/07/01 05:19:53;;;;;;;0.25;0.00;;;;;;;18.51;100.00;99753.16;5031848;28;20027;-61
2023/07/01 05:22:19;;;;;;;2.08;0.08;;;;;;;18.51;100.00;99747.81;5029109;28;20629;-63
2023/07/01 05:24:44;;;;;;;0.20;0.20;;;;;;;18.50;100.00;99746.97;5031741;28;20033;-60
2023/07/01 05:27:09;;;;;;;0.10;0.00;;;;;;;18.36;100.00;99745.84;5035092;28;20036;-60
2023/07/01 05:29:35;;;;;;;0.10;0.00;;;;;;;18.46;100.00;99745.09;5032818;28;20127;-57
2023/07/01 05:32:00;;;;;;;0.10;0.10;;;;;;;18.42;100.00;99758.22;5027003;28;20572;-63
2023/07/01 05:34:26;;;;;;;0.63;0.00;;;;;;;18.46;100.00;99751.25;5030078;28;20093;-62
2023/07/01 05:36:51;;;;;;;0.40;0.03;;;;;;;18.51;100.00;99758.53;5028216;28;20029;-61
2023/07/01 05:39:17;;;;;;;0.20;0.00;;;;;;;18.63;100.00;99756.44;5037616;28;20488;-54
2023/07/01 05:41:42;;;;;;;0.43;0.00;;;;;;;18.62;100.00;99756.72;5028025;28;20291;-65
2023/07/01 05:44:08;;;;;;;0.35;0.10;;;;;;;18.56;100.00;99755.88;5035807;28;20068;-64
2023/07/01 05:46:33;;;;;;;1.38;0.43;;;;;;;18.50;100.00;99759.59;5035248;28;20033;-64
2023/07/01 05:48:58;;;;;;;0.17;0.05;;;;;;;18.47;100.00;99760.91;5036049;28;20050;-65
2023/07/01 05:51:25;;;;;;;0.15;0.00;;;;;;;18.45;100.00;99764.94;5032321;28;20034;-65
2023/07/01 05:53:50;;;;;;;0.30;0.00;;;;;;;18.49;100.00;99764.16;5033600;28;20487;-63
2023/07/01 05:56:16;;;;;;;0.38;0.00;;;;;;;18.47;100.00;99762.78;5036952;28;20038;-65
2023/07/01 05:58:41;;;;;;;0.90;0.00;;;;;;;18.42;100.00;99760.88;5037103;28;20033;-66
2023/07/01 06:01:07;;;;;;;0.00;0.00;;;;;;;18.48;100.00;99759.03;5028698;28;20056;-65
2023/07/01 06:03:33;;;;;;;0.20;0.00;;;;;;;18.60;100.00;99756.16;5036948;28;21133;-66
2023/07/01 06:05:58;;;;;;;0.00;0.00;;;;;;;18.67;100.00;99756.72;5027578;28;20432;-64
2023/07/01 06:08:23;;;;;;;5.63;0.03;;;;;;;18.72;100.00;99764.81;5029000;28;20067;-66
2023/07/01 06:10:49;;;;;;;0.05;0.00;;;;;;;18.73;100.00;99763.72;5037141;28;20029;-65
2023/07/01 06:13:15;;;;;;;1.55;0.00;;;;;;;18.81;100.00;99768.63;5036202;28;20036;-62
2023/07/01 06:15:40;;;;;;;0.00;0.00;;;;;;;18.91;100.00;99770.53;5035194;28;20033;-62
2023/07/01 06:18:05;;;;;;;0.20;0.00;;;;;;;18.95;100.00;99772.44;5028075;28;20037;-63
2023/07/01 06:20:31;;;;;;;0.00;0.00;;;;;;;19.02;100.00;99768.69;5031368;28;20382;-65
2023/07/01 06:22:56;;;;;;;0.03;0.00;;;;;;;18.92;100.00;99769.47;5031244;28;20029;-60
2023/07/01 06:25:21;;;;;;;0.10;0.00;;;;;;;18.87;100.00;99766.75;5030013;28;20044;-55
2023/07/01 06:27:47;;;;;;;0.00;0.00;;;;;;;18.91;100.00;99770.53;5025224;28;20040;-67
2023/07/01 06:30:12;;;;;;;2.08;0.10;;;;;;;18.91;100.00;99763.28;5047125;28;20655;-62
2023/07/01 06:32:37;;;;;;;1.10;0.00;;;;;;;18.82;100.00;99758.69;5029607;28;20131;-66
2023/07/01 06:35:03;;;;;;;0.35;0.00;;;;;;;18.99;100.00;99763.84;5030320;28;20033;-64
2023/07/01 06:37:28;;;;;;;0.57;0.20;;;;;;;19.02;100.00;99757.94;5032479;28;20462;-61
2023/07/01 06:39:54;;;;;;;0.22;0.00;;;;;;;19.06;100.00;99775.97;5032180;28;20113;-57
2023/07/01 06:42:19;;;;;;;3.55;0.00;;;;;;;19.07;100.00;99768.72;5038343;28;20690;-66
2023/07/01 06:44:45;;;;;;;0.00;0.00;;;;;;;18.99;100.00;99766.53;5028750;28;20461;-66
2023/07/01 06:47:10;;;;;;;0.40;0.00;;;;;;;18.90;100.00;99771.63;5026452;28;20041;-65
2023/07/01 06:49:35;;;;;;;1.70;0.75;;;;;;;18.98;100.00;99776.47;5025378;28;20028;-65
2023/07/01 06:52:01;;;;;;;0.00;0.00;;;;;;;19.00;100.00;99779.72;5042615;28;20120;-67
2023/07/01 06:54:27;;;;;;;0.30;0.10;;;;;;;18.96;100.00;99776.72;5031800;28;20037;-65
2023/07/01 06:56:52;;;;;;;0.60;0.00;;;;;;;19.12;100.00;99784.84;5033887;28;20108;-64
2023/07/01 06:59:18;;;;;;;0.10;0.10;;;;;;;19.23;100.00;99794.53;5034227;28;20028;-68
2023/07/01 07:01:43;;;;;;;0.30;0.30;;;;;;;19.18;100.00;99786.50;5026075;28;20100;-62
2023/07/01 07:04:08;;;;;;;2.53;0.00;;;;;;;19.00;100.00;99787.78;5032875;28;21506;-66
2023/07/01 07:06:34;;;;;;;0.10;0.10;;;;;;;18.87;100.00;99794.44;5035726;28;20037;-66
2023/07/01 07:08:59;;;;;;;0.22;0.22;;;;;;;18.82;100.00;99799.78;5036075;28;20544;-64
2023/07/01 07:11:24;;;;;;;0.00;0.00;;;;;;;18.66;100.00;99806.09;5026626;28;20041;-67
2023/07/01 07:13:50;;;;;;;0.55;0.00;;;;;;;18.68;100.00;99806.66;5028454;28;20081;-62
2023/07/01 07:16:15;;;;;;;1.23;0.35;;;;;;;18.81;100.00;99811.59;5034555;28;20482;-66
2023/07/01 07:18:40;;;;;;;2.95;0.00;;;;;;;18.84;100.00;99815.63;5028510;28;20041;-64
2023/07/01 07:21:06;;;;;;;0.82;0.00;;;;;;;19.03;100.00;99808.75;5036579;28;20033;-58
2023/07/01 07:23:31;;;;;;;1.05;0.08;;;;;;;19.08;100.00;99802.59;5035388;28;20043;-62
2023/07/01 07:25:56;;;;;;;2.05;0.32;;;;;;;19.18;100.00;99799.94;5035636;28;20037;-55
2023/07/01 07:28:22;;;;;;;0.88;0.00;;;;;;;19.27;100.00;99801.00;5039076;28;20070;-64
2023/07/01 07:30:47;;;;;;;1.38;0.32;;;;;;;19.31;100.00;99801.28;5033713;28;20559;-64
2023/07/01 07:33:12;;;;;;;0.28;0.00;;;;;;;19.46;100.00;99805.88;5029755;28;20542;-64
2023/07/01 07:35:38;;;;;;;1.90;0.00;;;;;;;19.37;100.00;99794.84;5031459;28;20026;-59
2023/07/01 07:38:03;;;;;;;0.00;0.00;;;;;;;19.35;100.00;99802.38;5039347;28;20036;-63
2023/07/01 07:40:28;;;;;;;0.17;0.00;;;;;;;19.35;100.00;99800.50;5032769;28;20037;-60
2023/07/01 07:42:54;;;;;;;0.00;0.00;;;;;;;19.68;100.00;99803.00;5038938;28;20036;-58
2023/07/01 07:45:22;;;;;;;0.00;0.00;;;;;;;19.71;100.00;99797.88;5038121;28;20045;-63
2023/07/01 07:47:48;;;;;;;0.00;0.00;;;;;;;19.65;100.00;99808.91;5030963;28;20108;-67
2023/07/01 07:50:14;;;;;;;0.10;0.00;;;;;;;19.66;100.00;99811.28;5036038;28;20033;-64
2023/07/01 07:52:39;;;;;;;0.22;0.00;;;;;;;19.78;100.00;99808.41;5036648;28;20060;-63
2023/07/01 07:55:05;;;;;;;0.00;0.00;;;;;;;19.63;100.00;99809.16;5027736;28;20033;-65
2023/07/01 07:57:30;;;;;;;0.00;0.00;;;;;;;19.55;100.00;99807.78;5041470;28;20028;-64
2023/07/01 07:59:55;;;;;;;0.25;0.10;;;;;;;19.59;100.00;99816.94;5044636;28;20486;-62
2023/07/01 08:02:21;;;;;;;0.68;0.30;;;;;;;19.72;100.00;99812.97;5034880;28;20041;-64
2023/07/01 08:04:47;;;;;;;0.00;0.00;;;;;;;19.91;100.00;99813.25;5033741;28;20033;-56
2023/07/01 08:07:13;;;;;;;2.08;0.00;;;;;;;20.08;100.00;99818.31;5038423;28;20095;-56
2023/07/01 08:09:38;;;;;;;0.10;0.00;;;;;;;20.24;100.00;99811.06;5039681;28;20032;-65
2023/07/01 08:12:04;;;;;;;0.65;0.08;;;;;;;20.27;100.00;99807.84;5040819;28;20509;-66
2023/07/01 08:14:30;;;;;;;3.70;0.38;;;;;;;20.14;100.00;99811.09;5035304;28;20037;-67
2023/07/01 08:16:58;;;;;;;0.25;0.00;;;;;;;19.99;100.00;99801.13;5040038;28;20166;-57
2023/07/01 08:19:23;;;;;;;0.00;0.00;;;;;;;19.83;100.00;99813.78;5046245;28;20043;-59
2023/07/01 08:21:49;;;;;;;0.60;0.00;;;;;;;19.88;100.00;99818.31;5032940;28;20041;-59
2023/07/01 08:24:15;;;;;;;0.43;0.00;;;;;;;19.90;100.00;99814.28;5033341;28;20040;-59
2023/07/01 08:26:40;;;;;;;0.10;0.00;;;;;;;19.75;100.00;99817.81;5031095;28;20037;-61
2023/07/01 08:29:09;;;;;;;0.35;0.00;;;;;;;19.64;100.00;99816.13;5038144;28;20025;-54
2023/07/01 08:31:34;;;;;;;0.00;0.00;;;;;;;19.67;100.00;99815.66;5040621;28;20278;-66
2023/07/01 08:34:00;;;;;;;0.47;0.00;;;;;;;19.71;100.00;99819.41;5032542;28;20033;-66
2023/07/01 08:36:26;;;;;;;0.17;0.00;;;;;;;19.50;100.00;99831.19;5038282;28;20402;-57
2023/07/01 08:38:51;;;;;;;0.00;0.00;;;;;;;19.26;100.00;99828.97;5034756;28;20474;-58
2023/07/01 08:41:18;;;;;;;0.20;0.00;;;;;;;19.57;100.00;99821.78;5024872;28;20048;-63
2023/07/01 08:43:47;;;;;;;0.05;0.00;;;;;;;19.77;100.00;99810.28;5030560;28;20034;-64
2023/07/01 08:46:15;;;;;;;1.17;0.00;;;;;;;19.93;100.00;99812.94;5035202;28;20028;-63
2023/07/01 08:48:43;;;;;;;1.50;0.00;;;;;;;20.17;100.00;99824.78;5030263;28;20041;-68
2023/07/01 08:51:12;;;;;;;1.30;0.00;;;;;;;20.32;100.00;99812.41;5034037;28;20021;-61
2023/07/01 08:53:38;;;;;;;0.35;0.25;;;;;;;20.44;100.00;99819.09;5032249;28;20414;-62
2023/07/01 08:56:06;;;;;;;0.47;0.00;;;;;;;20.37;100.00;99813.22;5032637;28;20120;-61
2023/07/01 08:58:32;;;;;;;0.00;0.00;;;;;;;20.41;100.00;99813.47;5034709;28;20509;-66
2023/07/01 09:00:58;;;;;;;0.63;0.00;;;;;;;20.53;100.00;99808.59;5050552;28;20060;-57
2023/07/01 09:03:26;;;;;;;0.00;0.00;;;;;;;20.63;100.00;99810.50;5036730;28;20029;-63
2023/07/01 09:05:51;;;;;;;0.85;0.00;;;;;;;21.06;100.00;99811.66;5036602;28;20044;-58
2023/07/01 09:08:17;;;;;;;0.10;0.00;;;;;;;21.44;100.00;99822.00;5038496;28;20371;-65
2023/07/01 09:10:43;;;;;;;0.15;0.10;;;;;;;21.57;100.00;99821.38;5027260;28;20057;-62
2023/07/01 09:13:13;;;;;;;0.28;0.10;;;;;;;21.34;100.00;99817.44;5032987;28;20152;-65
2023/07/01 09:15:44;;;;;;;0.32;0.00;;;;;;;21.34;100.00;99806.66;5023175;28;20128;-66
2023/07/01 09:18:19;;;;;;;0.10;0.03;;;;;;;21.59;100.00;99810.34;5032715;28;20072;-69
2023/07/01 09:20:44;;;;;;;2.08;0.00;;;;;;;21.29;100.00;99812.88;5026658;28;20114;-66
2023/07/01 09:23:10;;;;;;;2.00;0.10;;;;;;;21.32;100.00;99817.75;5037571;28;20561;-55
2023/07/01 09:25:35;;;;;;;0.40;0.00;;;;;;;21.77;100.00;99810.44;5029504;28;20036;-58
2023/07/01 09:28:00;;;;;;;0.00;0.00;;;;;;;21.90;100.00;99805.50;5037500;28;20033;-58
2023/07/01 09:30:27;;;;;;;0.30;0.05;;;;;;;22.04;100.00;99808.34;5024131;28;20145;-67
2023/07/01 09:33:10;;;;;;;3.92;0.00;;;;;;;22.30;100.00;99801.66;5032174;28;20371;-53
2023/07/01 09:35:43;;;;;;;2.92;0.00;;;;;;;22.36;100.00;99814.03;5031989;28;20485;-66
2023/07/01 09:38:08;;;;;;;2.13;0.50;;;;;;;22.41;100.00;99808.56;5038100;28;20490;-62
2023/07/01 09:40:34;;;;;;;0.47;0.00;;;;;;;22.45;100.00;99821.50;5032186;28;20036;-61
2023/07/01 09:42:59;;;;;;;0.00;0.00;;;;;;;22.22;100.00;99818.47;5033290;28;20594;-68
2023/07/01 09:45:24;;;;;;;0.20;0.17;;;;;;;22.30;100.00;99812.44;5037053;28;20043;-67
2023/07/01 09:47:54;;;;;;;0.10;0.00;;;;;;;22.59;100.00;99804.34;5030012;28;20490;-60
2023/07/01 09:50:29;;;;;;;0.17;0.00;;;;;;;22.67;100.00;99811.00;5036206;28;20343;-63
2023/07/01 09:52:55;;;;;;;0.77;0.00;;;;;;;22.63;100.00;99810.75;5036295;28;20120;-63
2023/07/01 09:55:22;;;;;;;1.60;0.10;;;;;;;22.59;100.00;99808.94;5050401;28;20028;-63
2023/07/01 09:57:47;;;;;;;0.17;0.00;;;;;;;22.45;100.00;99814.19;5033017;28;20393;-65
2023/07/01 10:00:16;;;;;;;0.20;0.20;;;;;;;22.43;100.00;99814.50;5034080;28;20029;-66
2023/07/01 10:02:46;;;;;;;0.10;0.10;;;;;;;22.53;100.00;99820.88;5034175;28;20055;-63
2023/07/01 10:05:12;;;;;;;0.73;0.00;;;;;;;22.25;100.00;99812.50;5035124;28;20124;-66
2023/07/01 10:07:39;;;;;;;0.10;0.00;;;;;;;22.08;100.00;99812.91;5034590;28;20672;-64
2023/07/01 10:10:10;;;;;;;0.55;0.00;;;;;;;22.21;100.00;99812.28;5035824;28;20060;-65
2023/07/01 10:12:36;;;;;;;;;;;;;;;22.27;100.00;99817.63;5035646;28;20496;-49
2023/07/01 10:15:02;;;;;;;0.00;0.00;;;;;;;22.34;100.00;99818.91;5050808;28;20071;-60
2023/07/01 10:17:45;;;;;;;0.00;0.00;;;;;;;22.60;100.00;99813.25;5035180;28;20041;-61
2023/07/01 10:20:26;;;;;;;0.13;0.00;;;;;;;22.52;100.00;99801.16;5037082;28;21171;-61
2023/07/01 10:22:56;;;;;;;0.10;0.00;;;;;;;22.60;100.00;99807.84;5036692;28;20033;-52
2023/07/01 10:25:30;;;;;;;1.40;0.15;;;;;;;22.22;100.00;99807.66;5037116;28;20037;-60
2023/07/01 10:27:59;;;;;;;0.90;0.00;;;;;;;21.88;100.00;99803.06;5036166;28;20442;-50
2023/07/01 10:30:25;;;;;;;0.90;0.00;;;;;;;22.10;100.00;99805.34;5036888;28;20126;-58
2023/07/01 10:32:50;;;;;;;1.25;0.10;;;;;;;22.53;100.00;99789.25;5037446;28;20052;-51
2023/07/01 10:35:16;;;;;;;0.30;0.00;;;;;;;23.00;100.00;99800.34;5039936;28;20033;-50
2023/07/01 10:37:42;;;;;;;0.55;0.00;;;;;;;23.01;100.00;99801.97;5033892;28;20033;-62
2023/07/01 10:40:29;;;;;;;0.00;0.00;;;;;;;22.67;100.00;99800.19;5036015;28;20132;-64
2023/07/01 10:43:20;;;;;;;0.10;0.00;;;;;;;22.57;100.00;99801.09;5036100;28;20099;-65
2023/07/01 10:45:45;;;;;;;2.72;0.22;;;;;;;22.69;100.00;99797.19;5031937;28;20037;-62
2023/07/01 10:48:12;;;;;;;0.35;0.00;;;;;;;22.64;100.00;99814.28;5036767;28;20500;-61
2023/07/01 10:51:08;;;;;;;2.45;0.00;;;;;;;22.69;100.00;99803.41;5035297;28;20394;-61
2023/07/01 10:53:58;;;;;;;0.45;0.00;;;;;;;22.72;100.00;99807.41;5035940;28;20048;-60
2023/07/01 10:56:24;;;;;;;0.00;0.00;;;;;;;23.04;100.00;99809.50;5028134;28;20526;-55
2023/07/01 10:59:25;;;;;;;0.35;0.00;;;;;;;23.13;100.00;99818.59;5032882;28;20118;-62
2023/07/01 11:01:56;;;;;;;1.45;0.00;;;;;;;22.88;100.00;99826.97;5036474;28;20327;-48
2023/07/01 11:04:42;;;;;;;0.03;0.00;;;;;;;22.74;100.00;99833.06;5038124;28;20519;-64
2023/07/01 11:07:08;;;;;;;0.05;0.00;;;;;;;22.32;100.00;99842.69;5036683;28;20120;-63
2023/07/01 11:09:33;;;;;;;0.00;0.00;;;;;;;22.23;100.00;99830.91;5033641;28;20083;-50
2023/07/01 11:12:01;;;;;;;0.30;0.10;;;;;;;22.09;100.00;99844.19;5035123;28;20521;-53
2023/07/01 11:14:35;;;;;;;1.55;0.05;;;;;;;21.84;100.00;99853.31;5039543;28;20075;-49
2023/07/01 11:17:21;;;;;;;0.00;0.00;;;;;;;22.04;100.00;99838.84;5028179;28;20294;-50
2023/07/01 11:19:54;;;;;;;0.20;0.00;;;;;;;22.61;100.00;99839.97;5035709;28;20157;-58
2023/07/01 11:22:19;;;;;;;0.00;0.00;;;;;;;22.70;100.00;99842.84;5038020;28;20150;-64
2023/07/01 11:24:45;;;;;;;0.15;0.10;;;;;;;22.71;100.00;99839.03;5037203;28;20501;-57